Time;durP1;ratioP1;P1;durP2;ratioP2;P2;SDS_P1;SDS_P2;PMS_P1;PMS_P2;Temp;Humidity;BMP_temperature;BMP_pressure;BME280_temperature;BME280_humidity;BME280_pressure;Samples;Min_cycle;Max_cycle;Signal;HPM_P1;HPM_P2
2023/02/11 00:01:26;;;;;;;26.70;10.32;;;;;;;-5.47;63.49;102957.34;4995309;28;20426;-84
2023/02/11 00:03:53;;;;;;;26.98;10.25;;;;;;;-5.64;63.14;102922.41;4981763;28;20030;-85
2023/02/11 00:06:19;;;;;;;25.90;10.57;;;;;;;-5.54;63.00;102926.78;5002105;28;20093;-84
2023/02/11 00:08:45;;;;;;;26.65;11.15;;;;;;;-5.61;63.47;102931.16;4970342;28;20046;-86
2023/02/11 00:11:18;;;;;;;25.65;10.25;;;;;;;-5.47;63.75;102952.13;4991239;28;20034;-86
2023/02/11 00:13:45;;;;;;;31.40;10.80;;;;;;;-5.52;64.14;102956.50;4982227;28;20137;-85
2023/02/11 00:16:14;;;;;;;32.47;10.88;;;;;;;-5.69;64.00;102921.53;4978705;28;20026;-83
2023/02/11 00:18:42;;;;;;;36.13;11.73;;;;;;;-5.57;64.12;102963.50;4988254;28;20038;-84
2023/02/11 00:21:12;;;;;;;32.50;11.68;;;;;;;-5.66;64.33;102939.91;4980515;28;20036;-85
2023/02/11 00:23:38;;;;;;;31.58;11.73;;;;;;;-5.76;64.30;102916.34;4988299;28;20088;-88
2023/02/11 00:26:20;;;;;;;27.55;10.95;;;;;;;-5.60;63.96;102942.50;5001593;28;20042;-86
2023/02/11 00:28:47;;;;;;;30.92;10.73;;;;;;;-5.78;64.35;102910.22;5009854;28;20038;-85
2023/02/11 00:31:12;;;;;;;;;;;;;;;-5.58;64.31;102951.25;4985323;28;20356;-84
2023/02/11 00:33:39;;;;;;;;;;;;;;;-5.54;64.27;102953.00;5011518;28;19909;-84
2023/02/11 00:36:15;;;;;;;30.70;10.50;;;;;;;-5.70;64.08;102919.81;4980748;28;19920;-84
2023/02/11 00:38:47;;;;;;;31.98;12.07;;;;;;;-5.70;64.61;102946.03;4970250;28;20486;-82
2023/02/11 00:41:12;;;;;;;31.52;12.02;;;;;;;-5.65;64.44;102932.03;4996895;28;20498;-86
2023/02/11 00:43:39;;;;;;;28.67;12.05;;;;;;;-5.73;64.51;102925.94;5000592;28;20402;-85
2023/02/11 00:46:05;;;;;;;30.45;11.88;;;;;;;-5.79;64.81;102942.50;4984466;28;20061;-82
2023/02/11 00:48:31;;;;;;;33.55;12.05;;;;;;;-5.78;64.79;102948.66;4986669;28;20065;-82
2023/02/11 00:50:56;;;;;;;32.13;13.15;;;;;;;-5.79;65.21;102937.28;5000463;28;20123;-85
2023/02/11 00:53:22;;;;;;;32.53;12.93;;;;;;;-5.77;65.00;102935.53;5005703;28;20034;-86
2023/02/11 00:55:49;;;;;;;30.60;12.77;;;;;;;-5.80;65.36;102942.53;4981117;28;20037;-84
2023/02/11 00:58:15;;;;;;;32.42;12.90;;;;;;;-5.90;65.57;102936.44;4988962;28;20182;-84
2023/02/11 01:00:41;;;;;;;31.20;12.55;;;;;;;-5.93;65.69;102928.53;4995026;28;20160;-82
2023/02/11 01:03:08;;;;;;;31.20;13.60;;;;;;;-5.90;66.24;102938.16;5001715;28;20388;-84
2023/02/11 01:05:40;;;;;;;33.28;12.55;;;;;;;-5.98;66.68;102935.56;4999715;28;20293;-84
2023/02/11 01:08:07;;;;;;;36.20;13.40;;;;;;;-5.98;66.95;102919.84;4986347;28;20045;-82
2023/02/11 01:10:33;;;;;;;34.72;13.63;;;;;;;-6.01;68.41;102923.34;4997335;28;20367;-82
2023/02/11 01:12:58;;;;;;;37.57;14.50;;;;;;;-6.02;68.87;102933.81;4994874;28;20039;-86
2023/02/11 01:15:25;;;;;;;48.05;14.40;;;;;;;-6.01;69.27;102936.44;4977023;28;20061;-86
2023/02/11 01:17:51;;;;;;;35.15;14.07;;;;;;;-6.30;70.72;102898.88;5008707;28;20133;-82
2023/02/11 01:20:22;;;;;;;47.40;15.52;;;;;;;-6.29;71.40;102898.03;5005070;28;20092;-82
2023/02/11 01:22:50;;;;;;;40.40;14.30;;;;;;;-6.30;71.50;102902.34;4991245;28;20474;-82
2023/02/11 01:25:15;;;;;;;37.08;13.98;;;;;;;-6.21;72.18;102912.84;4991045;28;20092;-84
2023/02/11 01:27:41;;;;;;;41.22;14.93;;;;;;;-6.25;71.90;102894.50;4977616;28;20038;-83
2023/02/11 01:30:09;;;;;;;44.85;15.43;;;;;;;-6.32;72.47;102893.66;5007724;28;20053;-85
2023/02/11 01:32:34;;;;;;;37.70;14.32;;;;;;;-6.36;71.95;102881.44;4959287;28;20057;-85
2023/02/11 01:35:00;;;;;;;36.63;13.70;;;;;;;-6.23;71.29;102896.28;4968807;28;20029;-83
2023/02/11 01:37:25;;;;;;;29.20;12.63;;;;;;;-6.40;70.87;102874.44;4985625;28;20097;-87
2023/02/11 01:39:51;;;;;;;46.90;13.05;;;;;;;-6.26;70.21;102896.25;5002287;28;20321;-83
2023/02/11 01:42:22;;;;;;;29.88;11.82;;;;;;;-6.16;69.69;102911.13;4984969;28;20428;-85
2023/02/11 01:44:54;;;;;;;34.08;13.43;;;;;;;-6.13;69.48;102904.13;4995174;28;20033;-88
2023/02/11 01:47:23;;;;;;;39.92;12.52;;;;;;;-6.16;69.19;102898.03;4982410;28;20073;-85
2023/02/11 01:50:00;;;;;;;33.10;13.25;;;;;;;-6.17;69.04;102914.59;4989217;28;20096;-85
2023/02/11 01:52:47;;;;;;;32.95;13.10;;;;;;;-6.24;69.16;102904.13;4995521;28;20121;-86
2023/02/11 01:58:01;;;;;;;32.80;13.67;;;;;;;-6.19;68.44;102905.88;4987126;28;20055;-87
2023/02/11 02:00:30;;;;;;;40.45;14.40;;;;;;;-6.18;68.55;102911.97;4985699;28;20074;-85
2023/02/11 02:02:59;;;;;;;31.95;13.43;;;;;;;-6.09;68.36;102908.50;4991021;28;20462;-85
2023/02/11 02:05:30;;;;;;;41.63;14.32;;;;;;;-5.99;67.71;102907.66;5000065;28;20049;-84
2023/02/11 02:08:14;;;;;;;33.90;13.88;;;;;;;-6.05;67.93;102907.63;4994100;28;20077;-84
2023/02/11 02:10:43;;;;;;;38.60;13.55;;;;;;;-6.05;68.44;102907.63;4990708;28;20145;-85
2023/02/11 02:13:11;;;;;;;35.35;12.38;;;;;;;-6.11;68.36;102907.63;4961507;28;20564;-86
2023/02/11 02:15:39;;;;;;;32.67;12.80;;;;;;;-6.17;68.59;102909.38;5003409;28;20032;-83
2023/02/11 02:18:23;;;;;;;39.50;12.75;;;;;;;-6.11;68.06;102913.75;4995536;28;20035;-85
2023/02/11 02:21:05;;;;;;;32.20;12.73;;;;;;;-6.11;68.18;102905.91;4996341;28;20137;-82
2023/02/11 02:23:55;;;;;;;33.17;12.90;;;;;;;-6.04;68.25;102914.59;4974257;28;20057;-86
2023/02/11 02:26:36;;;;;;;31.67;12.90;;;;;;;-6.12;68.20;102908.50;4992186;28;20041;-84
2023/02/11 02:29:20;;;;;;;31.25;11.48;;;;;;;-6.10;68.50;102925.09;5005661;28;20465;-84
2023/02/11 02:32:14;;;;;;;35.15;12.43;;;;;;;-6.04;67.93;102920.75;5010310;28;20072;-85
2023/02/11 02:34:59;;;;;;;34.17;12.23;;;;;;;-6.07;67.65;102920.72;5004043;28;20234;-85
2023/02/11 02:37:49;;;;;;;39.10;13.00;;;;;;;-6.08;67.83;102920.72;5005508;28;20060;-84
2023/02/11 02:40:17;;;;;;;34.35;13.05;;;;;;;-6.14;67.97;102915.47;4998786;28;20049;-83
2023/02/11 02:42:48;;;;;;;32.15;11.88;;;;;;;-6.09;67.33;102908.50;4996301;28;20034;-85
2023/02/11 02:45:15;;;;;;;28.38;11.82;;;;;;;-6.18;67.40;102891.91;4999229;28;20356;-85
2023/02/11 02:47:41;;;;;;;30.08;11.85;;;;;;;-5.99;67.18;102907.66;4958697;28;20042;-87
2023/02/11 02:50:06;;;;;;;26.83;11.70;;;;;;;-6.04;67.40;102906.75;4993647;28;20088;-84
2023/02/11 02:52:44;;;;;;;27.15;11.35;;;;;;;-6.20;66.83;102893.66;4994459;28;20273;-85
2023/02/11 02:55:16;;;;;;;27.38;11.20;;;;;;;-6.18;67.28;102891.03;4991727;28;20057;-86
2023/02/11 02:58:09;;;;;;;30.75;12.07;;;;;;;-6.01;67.10;102923.34;4982381;28;20057;-86
2023/02/11 03:00:54;;;;;;;29.42;11.45;;;;;;;-6.05;67.02;102912.88;5002379;28;20509;-83
2023/02/11 03:03:46;;;;;;;28.73;11.07;;;;;;;-6.09;66.45;102905.88;5017221;28;20065;-82
2023/02/11 03:06:34;;;;;;;31.90;11.98;;;;;;;-6.07;66.58;102910.25;5017922;28;20042;-84
2023/02/11 03:09:06;;;;;;;24.67;10.70;;;;;;;-6.18;66.40;102893.63;4999483;28;20046;-84
2023/02/11 03:11:31;;;;;;;31.27;11.63;;;;;;;-6.33;66.93;102876.19;5000671;28;20038;-84
2023/02/11 03:14:10;;;;;;;25.27;9.97;;;;;;;-6.15;66.94;102896.28;4968165;28;20108;-85
2023/02/11 03:16:38;;;;;;;22.25;9.70;;;;;;;-6.02;66.49;102907.63;4984785;28;20034;-84
2023/02/11 03:19:40;;;;;;;27.23;11.05;;;;;;;-6.12;66.72;102906.75;5003728;28;20140;-85
2023/02/11 03:22:23;;;;;;;29.42;11.57;;;;;;;-6.14;66.68;102902.38;4998261;28;20044;-85
2023/02/11 03:24:49;;;;;;;28.45;11.05;;;;;;;-6.16;67.55;102924.22;4984420;28;20046;-86
2023/02/11 03:27:21;;;;;;;27.00;10.30;;;;;;;-6.16;67.45;102924.22;5000453;28;20139;-86
2023/02/11 03:30:16;;;;;;;27.10;10.98;;;;;;;-5.99;67.12;102915.50;5016457;28;20293;-86
2023/02/11 03:33:01;;;;;;;26.35;10.23;;;;;;;-6.25;67.25;102911.13;4997656;28;20034;-84
2023/02/11 03:35:35;;;;;;;29.20;10.25;;;;;;;-6.23;67.18;102909.38;4995182;28;20038;-83
2023/02/11 03:38:11;;;;;;;30.90;11.02;;;;;;;-6.26;67.21;102898.88;4992509;28;20033;-86
2023/02/11 03:40:41;;;;;;;25.25;10.43;;;;;;;-6.33;66.92;102880.56;4991680;28;20042;-85
2023/02/11 03:43:21;;;;;;;29.15;10.80;;;;;;;-6.18;67.36;102912.88;4977824;28;20037;-85
2023/02/11 03:45:52;;;;;;;25.83;11.07;;;;;;;-6.25;67.41;102910.22;4995054;28;20040;-85
2023/02/11 03:48:26;;;;;;;26.83;10.52;;;;;;;-6.21;67.03;102901.50;4985139;28;20046;-85
2023/02/11 03:50:53;;;;;;;23.30;9.15;;;;;;;-6.34;67.81;102903.25;4975961;28;20030;-84
2023/02/11 03:53:19;;;;;;;36.90;11.57;;;;;;;-6.27;67.60;102902.38;5009475;28;20137;-85
2023/02/11 03:55:47;;;;;;;24.95;10.40;;;;;;;-6.40;67.36;102874.44;5006272;28;20085;-87
2023/02/11 03:58:16;;;;;;;27.77;10.98;;;;;;;-6.29;67.26;102885.78;4969270;28;20101;-84
2023/02/11 04:01:03;;;;;;;28.83;10.77;;;;;;;-6.51;67.81;102882.25;4972008;28;20042;-85
2023/02/11 04:03:31;;;;;;;25.38;9.95;;;;;;;-6.55;67.85;102877.03;4980443;28;20136;-86
2023/02/11 04:05:59;;;;;;;23.02;10.05;;;;;;;-6.45;67.57;102884.91;4992357;28;20034;-85
2023/02/11 04:08:25;;;;;;;31.00;10.45;;;;;;;-6.42;67.72;102897.13;4988534;28;20491;-85
2023/02/11 04:10:52;;;;;;;32.08;11.15;;;;;;;-6.44;67.72;102889.28;4957549;28;20039;-85
2023/02/11 04:13:17;;;;;;;24.55;9.95;;;;;;;-6.31;67.51;102895.38;4975100;28;20042;-85
2023/02/11 04:15:43;;;;;;;26.83;11.45;;;;;;;-6.52;67.51;102870.06;4979240;28;20035;-85
2023/02/11 04:18:08;;;;;;;31.65;11.82;;;;;;;-6.33;67.62;102889.28;4955420;28;20042;-85
2023/02/11 04:20:36;;;;;;;26.65;11.18;;;;;;;-6.38;67.06;102857.00;4972372;28;20051;-85
2023/02/11 04:23:02;;;;;;;27.98;10.73;;;;;;;-6.43;67.38;102874.44;4970580;28;20054;-84
2023/02/11 04:25:28;;;;;;;29.83;11.75;;;;;;;-6.55;67.77;102866.59;4975949;28;20069;-85
2023/02/11 04:27:54;;;;;;;;;;;;;;;-6.39;67.61;102881.44;4980722;28;20053;-84
2023/02/11 04:30:19;;;;;;;;;;;;;;;-6.48;68.26;102889.28;4997163;28;20428;-87
2023/02/11 04:32:45;;;;;;;20.83;8.77;;;;;;;-6.67;68.25;102859.56;5003404;28;19972;-87
2023/02/11 04:35:11;;;;;;;31.88;11.55;;;;;;;-6.51;67.84;102881.41;4989825;28;20026;-86
2023/02/11 04:37:39;;;;;;;31.17;11.40;;;;;;;-6.68;68.72;102877.00;4980509;28;20030;-85
2023/02/11 04:40:11;;;;;;;29.75;11.68;;;;;;;-6.66;68.86;102885.72;4987873;28;20057;-86
2023/02/11 04:42:41;;;;;;;35.30;12.48;;;;;;;-6.68;68.94;102870.91;5011241;28;20046;-86
2023/02/11 04:45:09;;;;;;;30.95;12.40;;;;;;;-6.78;68.95;102870.00;4958741;28;20046;-84
2023/02/11 04:47:36;;;;;;;27.73;11.43;;;;;;;-6.83;69.70;102869.13;4975926;28;20463;-83
2023/02/11 04:50:04;;;;;;;33.47;11.75;;;;;;;-6.83;69.62;102871.75;4982903;28;20090;-85
2023/02/11 04:52:34;;;;;;;34.03;13.18;;;;;;;-6.88;69.81;102874.34;4959349;28;20057;-84
2023/02/11 04:55:03;;;;;;;38.25;12.50;;;;;;;-7.04;69.91;102839.41;4991139;28;20503;-85
2023/02/11 04:57:29;;;;;;;32.80;12.68;;;;;;;-6.90;69.57;102851.69;5000264;28;20054;-85
2023/02/11 04:59:55;;;;;;;28.83;11.75;;;;;;;-6.75;69.46;102871.75;4970291;28;20034;-86
2023/02/11 05:02:21;;;;;;;29.20;11.70;;;;;;;-6.85;69.05;102849.94;4987871;28;20078;-86
2023/02/11 05:04:48;;;;;;;29.43;11.70;;;;;;;-6.68;69.11;102882.22;4980235;28;20077;-86
2023/02/11 05:07:14;;;;;;;27.25;11.55;;;;;;;-6.83;69.01;102853.44;4980872;28;20508;-84
2023/02/11 05:09:52;;;;;;;33.33;13.15;;;;;;;-6.71;69.26;102876.13;4981908;28;20042;-83
2023/02/11 05:12:25;;;;;;;31.45;12.25;;;;;;;-6.99;69.49;102835.97;4999737;28;20038;-85
2023/02/11 05:14:54;;;;;;;28.08;11.98;;;;;;;-6.77;68.92;102869.13;4988612;28;20050;-84
2023/02/11 05:17:23;;;;;;;27.17;11.23;;;;;;;-6.73;69.01;102873.50;4991569;28;20045;-86
2023/02/11 05:19:52;;;;;;;28.20;11.75;;;;;;;-6.65;68.86;102874.41;4975112;28;20034;-85
2023/02/11 05:22:29;;;;;;;30.60;11.77;;;;;;;-6.80;68.98;102856.91;4963321;28;20136;-86
2023/02/11 05:24:57;;;;;;;33.85;11.98;;;;;;;-6.73;68.60;102849.97;4992618;28;20077;-86
2023/02/11 05:27:25;;;;;;;34.70;12.65;;;;;;;-6.62;68.42;102868.31;4975674;28;20039;-86
2023/02/11 05:29:52;;;;;;;28.98;11.90;;;;;;;-6.63;68.53;102866.53;4974319;28;20046;-87
2023/02/11 05:32:21;;;;;;;28.30;11.20;;;;;;;-6.68;68.24;102848.22;4974868;28;20197;-85
2023/02/11 05:34:47;;;;;;;34.97;11.90;;;;;;;-6.64;68.58;102860.44;4961022;28;20038;-86
2023/02/11 05:37:15;;;;;;;26.90;11.53;;;;;;;-6.63;68.17;102850.84;4978989;28;20455;-84
2023/02/11 05:39:41;;;;;;;28.27;11.77;;;;;;;-6.43;67.78;102861.34;4983629;28;20035;-84
2023/02/11 05:42:09;;;;;;;33.42;12.77;;;;;;;-6.45;67.71;102863.09;4980400;28;20053;-86
2023/02/11 05:44:35;;;;;;;31.67;12.20;;;;;;;-6.29;67.56;102875.31;4990223;28;20050;-86
2023/02/11 05:47:00;;;;;;;33.33;12.85;;;;;;;-6.35;67.28;102850.88;4988001;28;20160;-87
2023/02/11 05:49:26;;;;;;;31.75;12.43;;;;;;;-6.08;66.69;102877.06;4967777;28;20042;-85
2023/02/11 05:51:54;;;;;;;28.20;12.18;;;;;;;-6.17;66.55;102864.84;4994588;28;20030;-84
2023/02/11 05:54:20;;;;;;;35.25;12.43;;;;;;;-6.09;66.65;102859.59;4997483;28;20812;-86
2023/02/11 05:56:46;;;;;;;29.33;12.95;;;;;;;-5.73;66.05;102858.66;5001134;28;20081;-85
2023/02/11 05:59:14;;;;;;;31.40;13.80;;;;;;;-3.73;60.28;102854.84;4992572;28;20068;-84
2023/02/11 06:01:40;;;;;;;34.22;13.27;;;;;;;-2.15;55.50;102865.06;4993999;28;20463;-84
2023/02/11 06:04:09;;;;;;;34.88;13.98;;;;;;;-0.82;52.21;102840.50;4993948;28;20166;-86
2023/02/11 06:06:34;;;;;;;35.70;13.23;;;;;;;0.44;47.79;102842.63;4978162;28;20126;-85
2023/02/11 06:09:00;;;;;;;31.55;14.18;;;;;;;1.20;44.99;102858.09;4981090;28;20041;-87
2023/02/11 06:11:27;;;;;;;34.47;13.93;;;;;;;2.32;42.13;102861.53;4998949;28;20086;-86
2023/02/11 06:13:56;;;;;;;37.83;15.95;;;;;;;2.93;40.59;102855.78;4982488;28;20459;-86
2023/02/11 06:16:26;;;;;;;28.42;13.70;;;;;;;3.54;38.20;102829.47;5008479;28;20133;-86
2023/02/11 06:18:51;;;;;;;31.08;13.55;;;;;;;4.14;37.39;102848.22;5006582;28;20044;-87
2023/02/11 06:21:20;;;;;;;33.85;14.57;;;;;;;4.88;35.28;102822.78;4991250;28;20117;-85
2023/02/11 06:23:48;;;;;;;31.33;13.90;;;;;;;5.37;34.67;102836.47;4996814;28;20042;-86
2023/02/11 06:26:19;;;;;;;28.27;14.10;;;;;;;4.82;34.70;102848.81;4998047;28;20048;-85
2023/02/11 06:28:45;;;;;;;33.33;14.50;;;;;;;5.01;34.36;102850.59;4994940;28;20037;-85
2023/02/11 06:31:12;;;;;;;33.92;13.88;;;;;;;4.94;34.15;102847.38;4965735;28;20066;-85
2023/02/11 06:33:40;;;;;;;28.88;14.27;;;;;;;6.29;32.18;102845.22;4990106;28;20049;-86
2023/02/11 06:36:15;;;;;;;28.65;15.02;;;;;;;6.50;31.35;102840.56;4991633;28;20145;-85
2023/02/11 06:38:41;;;;;;;30.25;13.90;;;;;;;6.95;30.84;102850.63;4975708;28;20133;-85
2023/02/11 06:41:11;;;;;;;28.88;14.23;;;;;;;7.97;29.72;102848.38;5012659;28;20070;-86
2023/02/11 06:43:37;;;;;;;31.75;14.23;;;;;;;6.88;30.64;102819.81;4980962;28;20046;-86
2023/02/11 06:46:05;;;;;;;35.70;14.52;;;;;;;7.84;29.37;102817.91;4993480;28;20188;-86
2023/02/11 06:48:33;;;;;;;33.30;15.18;;;;;;;7.13;30.14;102823.78;4997504;28;20030;-86
2023/02/11 06:51:08;;;;;;;30.80;15.65;;;;;;;8.44;28.63;102822.41;4994018;28;20038;-85
2023/02/11 06:53:35;;;;;;;29.52;14.95;;;;;;;9.50;26.95;102824.59;4975047;28;20045;-85
2023/02/11 06:56:05;;;;;;;31.58;15.73;;;;;;;8.97;27.78;102820.88;4991804;28;20101;-90
2023/02/11 06:58:31;;;;;;;31.50;16.63;;;;;;;9.50;26.73;102834.44;5011155;28;20034;-86
2023/02/11 07:01:02;;;;;;;31.27;15.75;;;;;;;9.60;27.20;102845.44;4988870;28;20042;-84
2023/02/11 07:03:34;;;;;;;28.80;15.95;;;;;;;9.83;26.21;102823.31;5004344;28;20103;-94
2023/02/11 07:06:00;;;;;;;27.23;14.93;;;;;;;10.85;25.10;102810.91;5015160;28;20034;-90
2023/02/11 07:08:26;;;;;;;31.60;16.20;;;;;;;11.10;25.10;102826.16;5012423;28;20038;-81
2023/02/11 07:10:53;;;;;;;29.80;17.60;;;;;;;11.69;24.22;102828.94;5012561;28;20042;-88
2023/02/11 07:13:24;;;;;;;29.98;17.63;;;;;;;12.34;23.46;102816.78;4980583;28;20407;-86
2023/02/11 07:15:52;;;;;;;30.40;17.05;;;;;;;12.81;22.59;102806.78;5018384;23;20137;-87
2023/02/11 07:18:43;;;;;;;34.97;18.05;;;;;;;13.05;22.50;102817.41;5011254;28;20034;-88
2023/02/11 07:21:21;;;;;;;34.90;18.67;;;;;;;13.32;22.28;102815.31;5005730;28;20171;-86
2023/02/11 07:23:48;;;;;;;31.13;20.30;;;;;;;12.57;22.81;102814.09;5007461;28;20126;-84
2023/02/11 07:26:24;;;;;;;34.67;21.10;;;;;;;12.16;23.41;102799.34;4988356;28;20054;-81
2023/02/11 07:28:51;;;;;;;;;;;;;;;12.99;22.67;102808.94;4980107;28;20046;-85
2023/02/11 07:31:24;;;;;;;37.33;20.25;;;;;;;13.12;22.58;102803.41;4983909;28;20330;-83
2023/02/11 07:33:55;;;;;;;36.58;21.58;;;;;;;12.16;23.26;102802.03;4985696;28;20120;-86
2023/02/11 07:36:22;;;;;;;35.95;21.88;;;;;;;12.54;23.35;102806.25;4966237;28;20149;-83
2023/02/11 07:38:48;;;;;;;40.47;22.40;;;;;;;11.95;24.08;102809.94;5003520;28;20109;-84
2023/02/11 07:41:18;;;;;;;35.83;22.25;;;;;;;11.79;25.31;102796.75;4971519;28;20455;-81
2023/02/11 07:43:49;;;;;;;41.33;22.55;;;;;;;11.58;24.54;102808.16;4998263;28;20085;-88
2023/02/11 07:46:28;;;;;;;47.58;24.05;;;;;;;11.58;24.70;102785.75;4991205;28;20086;-89
2023/02/11 07:49:13;;;;;;;40.08;24.10;;;;;;;12.84;23.39;102775.97;5019302;28;20042;-85
2023/02/11 07:52:13;;;;;;;45.28;25.15;;;;;;;13.40;23.23;102767.75;4995428;28;20042;-86
2023/02/11 07:54:39;;;;;;;37.72;21.05;;;;;;;12.32;23.67;102782.84;4988317;28;20124;-82
2023/02/11 07:57:06;;;;;;;39.92;20.45;;;;;;;12.66;23.26;102762.09;4992424;28;20045;-84
2023/02/11 07:59:32;;;;;;;39.13;22.85;;;;;;;12.75;23.87;102763.22;4992284;28;20065;-81
2023/02/11 08:01:57;;;;;;;30.30;18.48;;;;;;;14.18;22.70;102783.72;4990044;28;20035;-85
2023/02/11 08:04:23;;;;;;;31.02;18.33;;;;;;;13.90;21.86;102775.28;4994412;28;20458;-85
2023/02/11 08:06:51;;;;;;;34.95;17.98;;;;;;;13.67;22.32;102778.13;4995569;28;20038;-85
2023/02/11 08:09:19;;;;;;;34.25;17.80;;;;;;;13.29;22.43;102762.41;4995570;28;20058;-86
2023/02/11 08:11:45;;;;;;;34.53;19.13;;;;;;;14.24;21.86;102754.28;4978342;28;20045;-83
2023/02/11 08:14:10;;;;;;;38.50;18.70;;;;;;;14.40;21.37;102737.56;4972536;28;20116;-83
2023/02/11 08:16:37;;;;;;;34.65;17.23;;;;;;;15.17;20.79;102749.63;4973686;28;20103;-84
2023/02/11 08:19:10;;;;;;;29.50;17.00;;;;;;;15.20;20.34;102733.97;4988476;28;20042;-82
2023/02/11 08:21:38;;;;;;;39.08;17.35;;;;;;;15.12;20.96;102754.63;4968338;28;20043;-83
2023/02/11 08:24:04;;;;;;;35.00;17.02;;;;;;;15.63;19.95;102761.66;4991572;28;20056;-86
2023/02/11 08:26:33;;;;;;;;;;;;;;;15.60;19.70;102764.66;5010269;28;20050;-83
2023/02/11 08:28:59;;;;;;;26.23;15.10;;;;;;;16.19;18.70;102743.75;4990357;28;19976;-83
2023/02/11 08:31:29;;;;;;;;;;;;;;;17.27;18.43;102750.38;4992534;28;20106;-83
2023/02/11 08:33:56;;;;;;;31.00;16.45;;;;;;;16.46;18.99;102742.97;4987479;28;19914;-79
2023/02/11 08:36:31;;;;;;;33.90;17.60;;;;;;;17.77;18.68;102728.06;4979904;28;20502;-84
2023/02/11 08:39:02;;;;;;;35.53;18.13;;;;;;;18.22;17.82;102727.03;5000749;28;20033;-82
2023/02/11 08:41:28;;;;;;;32.00;17.60;;;;;;;19.14;17.04;102729.97;5074484;23;20079;-82
2023/02/11 08:43:54;;;;;;;28.42;17.45;;;;;;;19.04;17.02;102713.75;5034418;28;20050;-84
2023/02/11 08:46:22;;;;;;;30.90;18.10;;;;;;;19.06;16.63;102711.72;5028467;28;20045;-88
2023/02/11 08:48:48;;;;;;;30.33;18.70;;;;;;;18.62;16.70;102720.06;5023326;28;20192;-80
2023/02/11 08:51:19;;;;;;;30.42;18.95;;;;;;;18.28;17.28;102722.78;5039330;28;20547;-87
2023/02/11 08:53:44;;;;;;;42.50;21.17;;;;;;;18.00;17.49;102722.13;5022446;28;20110;-79
2023/02/11 08:56:10;;;;;;;36.47;17.92;;;;;;;18.64;16.78;102695.41;5029337;28;20469;-88
2023/02/11 08:58:37;;;;;;;28.63;17.27;;;;;;;19.97;16.03;102705.28;5026668;28;20025;-80
2023/02/11 09:01:08;;;;;;;25.73;16.98;;;;;;;20.26;15.83;102709.28;5022084;28;20110;-84
2023/02/11 09:03:35;;;;;;;30.67;17.42;;;;;;;19.73;16.07;102700.69;5024475;28;20108;-82
2023/02/11 09:06:04;;;;;;;29.23;17.52;;;;;;;20.27;15.37;102689.13;5038051;28;20025;-82
2023/02/11 09:08:29;;;;;;;33.58;18.45;;;;;;;21.07;15.34;102679.84;5010453;28;20091;-83
2023/02/11 09:10:56;;;;;;;26.00;16.63;;;;;;;20.79;14.85;102685.88;5034719;28;20036;-84
2023/02/11 09:13:24;;;;;;;27.08;16.63;;;;;;;20.73;15.05;102664.72;5032212;28;20190;-81
2023/02/11 09:15:50;;;;;;;24.98;16.52;;;;;;;20.62;15.07;102673.31;5026552;28;20041;-77
2023/02/11 09:18:16;;;;;;;33.15;17.25;;;;;;;20.75;15.23;102689.16;5001015;28;20331;-80
2023/02/11 09:20:41;;;;;;;27.60;16.05;;;;;;;19.99;15.72;102692.31;5002965;28;20149;-84
2023/02/11 09:23:09;;;;;;;25.92;17.52;;;;;;;20.01;15.48;102673.84;5016887;28;20047;-83
2023/02/11 09:25:37;;;;;;;28.73;15.48;;;;;;;21.20;14.88;102680.13;5039135;28;20493;-83
2023/02/11 09:28:03;;;;;;;32.35;16.92;;;;;;;20.93;14.96;102683.38;5012978;28;20029;-83
2023/02/11 09:30:31;;;;;;;30.60;17.38;;;;;;;22.33;14.45;102659.19;5017527;28;20055;-84
2023/02/11 09:32:56;;;;;;;25.70;18.27;;;;;;;22.67;13.89;102669.53;5045569;28;20047;-84
2023/02/11 09:35:22;;;;;;;27.35;16.20;;;;;;;22.15;14.08;102678.75;5021435;28;20037;-83
2023/02/11 09:37:48;;;;;;;29.08;17.40;;;;;;;22.69;13.56;102664.72;5018589;28;20103;-83
2023/02/11 09:40:14;;;;;;;28.30;16.33;;;;;;;22.08;14.01;102651.25;5037871;28;20497;-85
2023/02/11 09:43:02;;;;;;;26.92;18.30;;;;;;;22.37;13.91;102654.19;5010592;28;20053;-82
2023/02/11 09:45:29;;;;;;;32.30;21.55;;;;;;;22.15;13.95;102637.66;5040169;28;20040;-82
2023/02/11 09:47:58;;;;;;;28.23;21.13;;;;;;;22.47;13.96;102639.13;5036879;28;20032;-83
2023/02/11 09:50:29;;;;;;;26.17;15.98;;;;;;;20.65;14.99;102654.69;5026308;28;20036;-84
2023/02/11 09:53:02;;;;;;;23.50;15.85;;;;;;;21.78;14.34;102647.66;5012256;28;20046;-82
2023/02/11 09:55:36;;;;;;;23.17;16.98;;;;;;;22.93;13.82;102633.31;5035482;28;20041;-84
2023/02/11 09:58:32;;;;;;;25.52;15.68;;;;;;;22.68;13.71;102629.25;5026180;28;20320;-82
2023/02/11 10:01:20;;;;;;;21.70;15.57;;;;;;;23.70;13.22;102626.19;5016352;28;20414;-84
2023/02/11 10:04:07;;;;;;;26.38;16.30;;;;;;;23.27;13.63;102626.31;5017507;28;20127;-82
2023/02/11 10:07:17;;;;;;;22.95;14.98;;;;;;;23.82;13.46;102609.19;5032825;28;20037;-82
2023/02/11 10:10:07;;;;;;;20.80;15.00;;;;;;;23.93;12.92;102601.22;5016255;28;20052;-84
2023/02/11 10:12:43;;;;;;;25.08;15.00;;;;;;;23.05;13.80;102603.50;5031900;28;20033;-83
2023/02/11 10:15:28;;;;;;;22.65;15.27;;;;;;;22.88;13.82;102602.06;5038204;28;20405;-87
2023/02/11 10:18:44;;;;;;;26.63;15.30;;;;;;;21.58;14.52;102595.31;5040950;28;20069;-83
2023/02/11 10:21:32;;;;;;;27.17;15.25;;;;;;;22.11;14.46;102585.13;4995528;28;20080;-83
2023/02/11 10:24:02;;;;;;;29.52;16.83;;;;;;;22.32;14.32;102586.25;5027961;28;20041;-82
2023/02/11 10:26:30;;;;;;;21.10;15.20;;;;;;;22.14;14.17;102572.94;4997666;28;20045;-82
2023/02/11 10:28:56;;;;;;;30.17;16.55;;;;;;;22.54;14.06;102577.00;5014020;28;20517;-82
2023/02/11 10:31:35;;;;;;;33.10;21.35;;;;;;;23.57;13.48;102569.28;5018422;28;20038;-82
2023/02/11 10:34:10;;;;;;;27.13;17.50;;;;;;;22.24;14.26;102569.91;5006818;28;20049;-82
2023/02/11 10:36:39;;;;;;;31.88;19.10;;;;;;;21.41;14.53;102560.97;5020095;28;20063;-82
2023/02/11 10:39:18;;;;;;;25.65;17.05;;;;;;;22.69;13.88;102566.00;5025090;28;20052;-83
2023/02/11 10:41:45;;;;;;;25.20;15.82;;;;;;;22.77;13.56;102565.88;5024835;28;20070;-82
2023/02/11 10:44:27;;;;;;;27.23;15.45;;;;;;;23.04;13.53;102563.41;5045625;28;20033;-83
2023/02/11 10:46:55;;;;;;;25.63;14.95;;;;;;;22.72;13.66;102560.13;5038081;28;20113;-81
2023/02/11 10:50:02;;;;;;;28.70;18.70;;;;;;;21.51;14.40;102550.59;5022164;28;20041;-83
2023/02/11 10:52:32;;;;;;;27.45;16.08;;;;;;;20.74;14.88;102548.88;4951990;29;20047;-82
2023/02/11 10:55:24;;;;;;;25.17;14.85;;;;;;;21.26;14.82;102539.91;5001604;28;20087;-82
2023/02/11 10:57:55;;;;;;;25.42;16.08;;;;;;;21.37;14.47;102535.81;5038941;28;20033;-84
2023/02/11 11:00:37;;;;;;;24.70;16.45;;;;;;;20.36;15.34;102529.66;4998473;28;20037;-83
2023/02/11 11:03:33;;;;;;;36.13;25.08;;;;;;;21.34;14.68;102532.63;4999869;28;20446;-87
2023/02/11 11:06:03;;;;;;;27.05;15.45;;;;;;;21.40;14.29;102501.81;5014675;28;20033;-81
2023/02/11 11:08:47;;;;;;;26.75;15.95;;;;;;;21.19;14.61;102514.31;5006468;28;20128;-84
2023/02/11 11:11:24;;;;;;;22.35;15.05;;;;;;;21.82;14.24;102513.97;5023623;28;20025;-82
2023/02/11 11:13:53;;;;;;;22.77;14.60;;;;;;;20.97;14.76;102515.22;5051786;28;20061;-87
2023/02/11 11:16:23;;;;;;;23.00;13.85;;;;;;;20.55;15.04;102501.00;5060557;28;20033;-88
2023/02/11 11:19:19;;;;;;;19.20;14.30;;;;;;;21.42;14.59;102499.72;5018800;28;20037;-88
2023/02/11 11:21:49;;;;;;;21.73;14.00;;;;;;;22.51;13.99;102497.94;5045316;28;20044;-86
2023/02/11 11:24:53;;;;;;;19.95;14.30;;;;;;;20.81;15.03;102484.28;5039658;28;20100;-86
2023/02/11 11:27:22;;;;;;;21.98;13.90;;;;;;;21.05;15.10;102490.53;5040576;28;20041;-87
2023/02/11 11:29:54;;;;;;;24.38;15.15;;;;;;;20.89;15.38;102479.75;5017368;28;20029;-84
2023/02/11 11:32:49;;;;;;;24.83;14.93;;;;;;;19.74;16.01;102464.16;5008455;28;20044;-83
2023/02/11 11:35:28;;;;;;;21.60;13.25;;;;;;;20.94;15.03;102471.84;5042987;28;20045;-85